Time;durP1;ratioP1;P1;durP2;ratioP2;P2;SDS_P1;SDS_P2;PMS_P1;PMS_P2;Temp;Humidity;BMP_temperature;BMP_pressure;BME280_temperature;BME280_humidity;BME280_pressure;Samples;Min_cycle;Max_cycle;Signal;HPM_P1;HPM_P2
2023/07/04 00:01:52;;;;;;;13.35;2.78;;;;;;;;;;5070478;28;20482;-81
2023/07/04 00:04:20;;;;;;;7.43;2.63;;;;;;;;;;5081411;28;20422;-82
2023/07/04 00:06:50;;;;;;;10.63;2.78;;;;;;;;;;5090126;28;20441;-82
2023/07/04 00:09:17;;;;;;;9.35;2.22;;;;;;;;;;5081040;28;20422;-82
2023/07/04 00:11:43;;;;;;;10.68;2.92;;;;;;;;;;5090169;28;20501;-82
2023/07/04 00:14:10;;;;;;;12.65;2.90;;;;;;;;;;5090186;28;20414;-82
2023/07/04 00:16:36;;;;;;;9.40;2.67;;;;;;;;;;5088747;28;20409;-82
2023/07/04 00:19:06;;;;;;;7.95;2.65;;;;;;;;;;5072753;28;20976;-82
2023/07/04 00:21:32;;;;;;;12.38;2.78;;;;;;;;;;5054845;28;20469;-82
2023/07/04 00:23:59;;;;;;;11.82;2.70;;;;;;;;;;5063534;28;20474;-82
2023/07/04 00:26:26;;;;;;;11.68;2.75;;;11.90;99.90;;;;;;5090081;28;20467;-82
2023/07/04 00:28:52;;;;;;;10.50;3.03;;;;;;;;;;5056322;28;20524;-81
2023/07/04 00:31:22;;;;;;;9.45;2.67;;;11.80;99.90;;;;;;5080038;28;20407;-82
2023/07/04 00:33:48;;;;;;;13.57;2.70;;;;;;;;;;5080500;28;20467;-82
2023/07/04 00:36:17;;;;;;;8.57;2.75;;;12.10;99.90;;;;;;5090118;28;20425;-82
2023/07/04 00:38:44;;;;;;;8.95;2.47;;;;;;;;;;5071783;28;20913;-82
2023/07/04 00:41:13;;;;;;;9.43;2.67;;;;;;;;;;5072552;28;20414;-82
2023/07/04 00:43:57;;;;;;;12.43;2.60;;;;;;;;;;5089407;28;21018;-82
2023/07/04 00:46:37;;;;;;;10.40;2.70;;;;;;;;;;5090279;28;20398;-82
2023/07/04 00:49:06;;;;;;;7.57;2.55;;;;;;;;;;5086707;28;20809;-82
2023/07/04 00:51:33;;;;;;;10.67;3.07;;;;;;;;;;5070707;28;20994;-80
2023/07/04 00:53:59;;;;;;;13.15;2.90;;;;;;;;;;5090213;28;20501;-81
2023/07/04 00:56:25;;;;;;;13.10;2.90;;;;;;;;;;5089068;28;20414;-81
2023/07/04 00:58:59;;;;;;;11.57;3.15;;;11.80;99.90;;;;;;5072002;28;20575;-81
2023/07/04 01:01:25;;;;;;;10.07;3.10;;;;;;;;;;5071657;28;20908;-83
2023/07/04 01:03:52;;;;;;;7.25;2.45;;;;;;;;;;5070795;28;20421;-82
2023/07/04 01:06:28;;;;;;;9.57;2.63;;;;;;;;;;5053801;28;20395;-82
2023/07/04 01:08:56;;;;;;;9.70;2.83;;;;;;;;;;5080024;28;20410;-80
2023/07/04 01:11:33;;;;;;;10.63;2.80;;;;;;;;;;5087027;28;20415;-81
2023/07/04 01:14:03;;;;;;;7.70;2.73;;;;;;;;;;5089284;28;21704;-82
2023/07/04 01:16:31;;;;;;;9.07;2.90;;;;;;;;;;5093485;28;20409;-83
2023/07/04 01:18:58;;;;;;;9.15;3.13;;;12.00;99.90;;;;;;5090462;28;20423;-81
2023/07/04 01:21:27;;;;;;;9.07;3.35;;;;;;;;;;5074501;28;20506;-81
2023/07/04 01:24:30;;;;;;;11.43;3.08;;;12.10;99.90;;;;;;5090792;28;20429;-82
2023/07/04 01:26:56;;;;;;;11.75;3.28;;;;;;;;;;5092130;28;20428;-81
2023/07/04 01:29:23;;;;;;;8.88;3.13;;;;;;;;;;5076918;28;20397;-81
2023/07/04 01:31:49;;;;;;;9.85;2.90;;;;;;;;;;5055024;28;20427;-82
2023/07/04 01:34:20;;;;;;;7.68;3.10;;;;;;;;;;5091943;28;20429;-81
2023/07/04 01:36:47;;;;;;;8.10;2.90;;;;;;;;;;5056884;28;20763;-81
2023/07/04 01:39:17;;;;;;;8.98;3.22;;;;;;;;;;5056917;28;20435;-81
2023/07/04 01:41:45;;;;;;;10.35;3.15;;;;;;;;;;5090772;28;20417;-81
2023/07/04 01:44:11;;;;;;;8.97;3.47;;;;;;;;;;5092683;28;20414;-81
2023/07/04 01:46:38;;;;;;;7.18;3.28;;;;;;;;;;5075719;28;20426;-82
2023/07/04 01:49:05;;;;;;;9.88;3.53;;;;;;;;;;5074683;28;20834;-81
2023/07/04 01:51:36;;;;;;;9.00;3.30;;;;;;;;;;5075301;28;20812;-81
2023/07/04 01:54:03;;;;;;;9.48;3.20;;;12.20;99.90;;;;;;5091321;28;20437;-81
2023/07/04 01:56:30;;;;;;;8.80;3.40;;;12.50;99.90;;;;;;5064311;28;20487;-81
2023/07/04 01:58:56;;;;;;;8.05;3.20;;;;;;;;;;5065465;28;20410;-81
2023/07/04 02:01:22;;;;;;;10.40;3.55;;;12.20;99.90;;;;;;5090733;28;20406;-82
2023/07/04 02:03:48;;;;;;;8.77;3.13;;;;;;;;;;5072043;28;20423;-81
2023/07/04 02:06:15;;;;;;;6.38;3.08;;;;;;;;;;5091858;28;20416;-81
2023/07/04 02:08:41;;;;;;;7.43;2.88;;;;;;;;;;5075622;28;20402;-82
2023/07/04 02:11:07;;;;;;;7.93;3.03;;;;;;;;;;5092667;28;20467;-81
2023/07/04 02:13:33;;;;;;;9.35;3.33;;;;;;;;;;5088331;28;20425;-81
2023/07/04 02:15:59;;;;;;;7.68;3.20;;;;;;;;;;5088623;28;20466;-80
2023/07/04 02:18:26;;;;;;;5.65;2.95;;;;;;;;;;5090215;28;20422;-81
2023/07/04 02:20:54;;;;;;;8.98;3.30;;;;;;;;;;5090910;28;20921;-81
2023/07/04 02:23:20;;;;;;;9.32;3.30;;;;;;;;;;5074491;28;20429;-81
2023/07/04 02:25:48;;;;;;;8.77;3.58;;;;;;;;;;5086720;28;20517;-81
2023/07/04 02:28:15;;;;;;;8.35;3.83;;;;;;;;;;5073552;28;20429;-81
2023/07/04 02:30:43;;;;;;;6.57;3.25;;;;;;;;;;5066329;28;20422;-81
2023/07/04 02:33:09;;;;;;;7.90;3.70;;;;;;;;;;5091234;28;20418;-82
2023/07/04 02:35:35;;;;;;;6.32;3.30;;;;;;;;;;5073778;28;20735;-82
2023/07/04 02:38:01;;;;;;;11.10;3.50;;;;;;;;;;5091550;28;20420;-82
2023/07/04 02:40:27;;;;;;;8.45;3.22;;;;;;;;;;5074216;28;20927;-83
2023/07/04 02:42:53;;;;;;;6.30;3.08;;;;;;;;;;5074442;28;20465;-83
2023/07/04 02:45:19;;;;;;;10.15;3.17;;;;;;;;;;5073703;28;20913;-83
2023/07/04 02:47:45;;;;;;;7.17;3.00;;;;;;;;;;5071074;28;20801;-83
2023/07/04 02:50:11;;;;;;;8.52;3.40;;;;;;;;;;5074137;28;20746;-83
2023/07/04 02:52:37;;;;;;;7.45;3.20;;;;;;;;;;5073849;28;20467;-83
2023/07/04 02:55:03;;;;;;;6.90;2.90;;;;;;;;;;5085363;28;20418;-83
2023/07/04 02:57:29;;;;;;;8.20;3.20;;;;;;;;;;5074563;28;20468;-84
2023/07/04 02:59:59;;;;;;;7.50;3.20;;;;;;;;;;5090007;28;20442;-83
2023/07/04 03:02:25;;;;;;;8.35;2.97;;;;;;;;;;5099150;28;20425;-84
2023/07/04 03:04:51;;;;;;;7.20;3.00;;;;;;;;;;5056708;28;20430;-84
2023/07/04 03:07:18;;;;;;;6.65;2.97;;;;;;;;;;5073908;28;20424;-83
2023/07/04 03:09:44;;;;;;;8.57;3.00;;;;;;;;;;5074680;28;20535;-84
2023/07/04 03:12:10;;;;;;;7.95;3.17;;;;;;;;;;5073551;28;20414;-83
2023/07/04 03:14:36;;;;;;;7.10;3.15;;;;;;;;;;5090818;28;20727;-83
2023/07/04 03:17:02;;;;;;;7.45;3.15;;;;;;;;;;5072876;28;20413;-83
2023/07/04 03:19:28;;;;;;;7.88;2.80;;;;;;;;;;5090831;28;20438;-82
2023/07/04 03:21:54;;;;;;;6.03;2.67;;;;;;;;;;5059219;28;20494;-83
2023/07/04 03:24:20;;;;;;;8.00;2.70;;;;;;;;;;5075173;28;20436;-83
2023/07/04 03:26:46;;;;;;;6.83;2.77;;;;;;;;;;5067975;28;20458;-82
2023/07/04 03:29:13;;;;;;;4.82;2.60;;;;;;;;;;5088812;28;20766;-82
2023/07/04 03:31:39;;;;;;;8.02;2.90;;;;;;;;;;5090812;28;20436;-82
2023/07/04 03:34:05;;;;;;;6.63;2.75;;;;;;;;;;5087948;28;20457;-83
2023/07/04 03:36:31;;;;;;;6.67;3.20;;;;;;;;;;5089522;28;20422;-83
2023/07/04 03:38:57;;;;;;;7.35;3.00;;;;;;;;;;5068432;28;20492;-83
2023/07/04 03:41:23;;;;;;;7.95;3.28;;;;;;;;;;5074091;28;20394;-83
2023/07/04 03:43:49;;;;;;;6.35;2.83;;;;;;;;;;5074386;28;20402;-83
2023/07/04 03:46:15;;;;;;;6.70;3.10;;;;;;;;;;5089794;28;20456;-82
2023/07/04 03:48:42;;;;;;;7.35;2.97;;;;;;;;;;5088926;28;20414;-82
2023/07/04 03:51:08;;;;;;;8.77;3.42;;;;;;;;;;5088671;28;20486;-82
2023/07/04 03:53:37;;;;;;;8.57;3.20;;;;;;;;;;5090483;28;20774;-83
2023/07/04 03:56:06;;;;;;;8.55;3.20;;;;;;;;;;5064004;28;20422;-83
2023/07/04 03:58:33;;;;;;;7.00;3.40;;;;;;;;;;5072469;28;20421;-83
2023/07/04 04:00:59;;;;;;;8.48;3.25;;;;;;;;;;5090330;28;20398;-83
2023/07/04 04:03:25;;;;;;;7.53;3.53;;;;;;;;;;5090518;28;20405;-83
2023/07/04 04:05:51;;;;;;;8.63;3.10;;;;;;;;;;5088028;28;20422;-83
2023/07/04 04:08:17;;;;;;;6.78;3.22;;;;;;;;;;5088908;28;20440;-83
2023/07/04 04:10:43;;;;;;;8.68;3.28;;;;;;;;;;5073655;28;20485;-82
2023/07/04 04:13:10;;;;;;;8.85;3.45;;;;;;;;;;5072859;28;20787;-82
2023/07/04 04:15:36;;;;;;;6.10;3.05;;;;;;;;;;5066411;28;20951;-83
2023/07/04 04:18:02;;;;;;;6.80;3.20;;;;;;;;;;5056252;28;20442;-83
2023/07/04 04:20:29;;;;;;;6.00;3.13;;;;;;;;;;5056406;28;20512;-83
2023/07/04 04:22:55;;;;;;;8.15;3.15;;;;;;;;;;5073326;28;20464;-82
2023/07/04 04:25:21;;;;;;;6.97;3.13;;;;;;;;;;5072500;28;20425;-83
2023/07/04 04:27:47;;;;;;;7.07;3.20;;;;;;;;;;5058335;28;20607;-83
2023/07/04 04:30:14;;;;;;;7.93;3.40;;;;;;;;;;5091365;28;20418;-83
2023/07/04 04:32:40;;;;;;;8.48;3.45;;;;;;;;;;5074073;28;20426;-83
2023/07/04 04:35:08;;;;;;;7.83;3.60;;;;;;;;;;5090483;28;20775;-83
2023/07/04 04:37:34;;;;;;;8.82;3.63;;;;;;;;;;5073802;28;20409;-83
2023/07/04 04:40:01;;;;;;;9.13;3.60;;;;;;;;;;5071264;28;20417;-82
2023/07/04 04:42:27;;;;;;;8.95;3.65;;;;;;;;;;5090227;28;20500;-82
2023/07/04 04:44:53;;;;;;;10.10;3.53;;;;;;;;;;5072099;28;20517;-82
2023/07/04 04:47:24;;;;;;;10.45;4.28;;;12.60;99.90;;;;;;5068763;28;20804;-82
2023/07/04 04:50:09;;;;;;;9.15;3.67;;;;;;;;;;5094072;28;20467;-83
2023/07/04 04:52:37;;;;;;;9.25;4.10;;;;;;;;;;5076920;28;20421;-82
2023/07/04 04:55:03;;;;;;;14.75;4.40;;;;;;;;;;5091594;28;20425;-81
2023/07/04 04:57:29;;;;;;;10.13;4.00;;;13.00;99.90;;;;;;5093785;28;20410;-82
2023/07/04 04:59:59;;;;;;;8.85;3.72;;;;;;;;;;5058896;28;20440;-83
2023/07/04 05:02:25;;;;;;;7.68;3.47;;;12.90;99.90;;;;;;5093535;28;20573;-83
2023/07/04 05:04:51;;;;;;;9.90;3.40;;;;;;;;;;5075852;28;20551;-82
2023/07/04 05:07:23;;;;;;;8.25;3.13;;;;;;;;;;5089808;28;20906;-83
2023/07/04 05:09:49;;;;;;;10.07;3.40;;;;;;;;;;5076914;28;20492;-82
2023/07/04 05:12:15;;;;;;;8.18;3.40;;;;;;;;;;5074762;28;20551;-82
2023/07/04 05:14:41;;;;;;;12.50;3.33;;;;;;;;;;5093287;28;20405;-82
2023/07/04 05:17:07;;;;;;;12.50;3.88;;;;;;;;;;5091876;28;20490;-82
2023/07/04 05:19:34;;;;;;;12.57;3.50;;;;;;;;;;5075721;28;20406;-82
2023/07/04 05:22:00;;;;;;;7.30;3.30;;;;;;;;;;5076422;28;20911;-83
2023/07/04 05:24:26;;;;;;;9.20;3.30;;;;;;;;;;5094440;28;20405;-78
2023/07/04 05:26:52;;;;;;;8.82;3.60;;;;;;;;;;5091023;28;20432;-79
2023/07/04 05:29:18;;;;;;;6.50;2.80;;;;;;;;;;5072952;28;20511;-79
2023/07/04 05:31:44;;;;;;;6.47;2.83;;;;;;;;;;5093463;28;20555;-79
2023/07/04 05:34:10;;;;;;;8.25;2.90;;;;;;;;;;5092955;28;20402;-79
2023/07/04 05:36:37;;;;;;;6.30;2.97;;;;;;;;;;5088280;28;20414;-79
2023/07/04 05:39:06;;;;;;;5.05;2.25;;;;;;;;;;5078833;28;20419;-78
2023/07/04 05:41:32;;;;;;;8.68;2.28;;;;;;;;;;5079525;28;20425;-78
2023/07/04 05:44:01;;;;;;;4.25;2.03;;;14.00;99.90;;;;;;5075166;28;20964;-78
2023/07/04 05:46:27;;;;;;;7.93;2.50;;;;;;;;;;5058980;28;20582;-78
2023/07/04 05:48:53;;;;;;;8.18;2.30;;;;;;;;;;5092584;28;20417;-78
2023/07/04 05:51:20;;;;;;;5.45;2.05;;;;;;;;;;5074303;28;20416;-77
2023/07/04 05:53:47;;;;;;;7.20;2.22;;;;;;;;;;5062536;28;20427;-78
2023/07/04 05:56:15;;;;;;;6.00;2.17;;;;;;;;;;5089446;28;20417;-77
2023/07/04 05:58:42;;;;;;;7.20;1.73;;;;;;;;;;5092227;28;20431;-78
2023/07/04 06:01:10;;;;;;;6.22;1.90;;;;;;;;;;5075085;28;20394;-78
2023/07/04 06:03:36;;;;;;;5.97;1.63;;;;;;;;;;5075841;28;20406;-77
2023/07/04 06:06:03;;;;;;;8.60;1.85;;;;;;;;;;5073325;28;20426;-78
2023/07/04 06:08:29;;;;;;;7.75;1.55;;;;;;;;;;5092730;28;20471;-78
2023/07/04 06:11:00;;;;;;;5.35;1.90;;;;;;;;;;5091569;28;20459;-78
2023/07/04 06:13:26;;;;;;;6.07;1.77;;;;;;;;;;5091493;28;20421;-79
2023/07/04 06:15:52;;;;;;;4.53;1.55;;;;;;;;;;5060776;28;20433;-81
2023/07/04 06:18:18;;;;;;;6.85;1.65;;;;;;;;;;5073024;28;20518;-80
2023/07/04 06:20:44;;;;;;;6.30;1.60;;;;;;;;;;5084322;28;20424;-80
2023/07/04 06:23:10;;;;;;;7.80;2.15;;;;;;;;;;5074444;28;20512;-81
2023/07/04 06:25:36;;;;;;;4.30;1.60;;;;;;;;;;5072515;28;20418;-81
2023/07/04 06:28:02;;;;;;;5.82;1.70;;;;;;;;;;5051994;28;20427;-80
2023/07/04 06:30:32;;;;;;;5.70;1.67;;;;;;;;;;5086111;28;20708;-80
2023/07/04 06:32:58;;;;;;;6.78;1.63;;;;;;;;;;5068371;28;20844;-81
2023/07/04 06:35:24;;;;;;;7.83;1.80;;;;;;;;;;5068751;28;20937;-81
2023/07/04 06:37:50;;;;;;;8.93;2.10;;;;;;;;;;5089458;28;20547;-81
2023/07/04 06:40:18;;;;;;;6.00;1.48;;;;;;;;;;5055568;28;20418;-81
2023/07/04 06:42:44;;;;;;;4.30;1.35;;;;;;;;;;5073964;28;20751;-81
2023/07/04 06:45:10;;;;;;;4.95;1.52;;;;;;;;;;5056309;28;20418;-81
2023/07/04 06:47:37;;;;;;;5.20;1.65;;;;;;;;;;5075240;28;20406;-81
2023/07/04 06:50:03;;;;;;;5.88;1.90;;;;;;;;;;5071752;28;20769;-80
2023/07/04 06:52:29;;;;;;;5.95;1.73;;;;;;;;;;5073072;28;20434;-80
2023/07/04 06:54:56;;;;;;;5.13;1.50;;;;;;;;;;5074372;28;20397;-79
2023/07/04 06:57:22;;;;;;;3.17;1.30;;;;;;;;;;5087794;28;20425;-80
2023/07/04 06:59:50;;;;;;;7.28;1.60;;;15.80;99.90;;;;;;5085178;28;20450;-79
2023/07/04 07:02:16;;;;;;;4.32;1.50;;;;;;;;;;5089198;28;21012;-80
2023/07/04 07:04:43;;;;;;;4.82;1.50;;;;;;;;;;5071250;28;20460;-79
2023/07/04 07:07:10;;;;;;;5.30;1.63;;;15.90;99.90;;;;;;5082913;28;20433;-79
2023/07/04 07:09:41;;;;;;;9.60;1.70;;;;;;;;;;5077662;28;20483;-80
2023/07/04 07:12:08;;;;;;;6.05;1.45;;;;;;;;;;5078800;28;20427;-79
2023/07/04 07:14:34;;;;;;;6.28;1.70;;;;;;;;;;5099310;28;20933;-80
2023/07/04 07:17:01;;;;;;;4.25;1.52;;;;;;;;;;5082613;28;20451;-81
2023/07/04 07:19:28;;;;;;;5.20;1.50;;;;;;;;;;5087847;28;20984;-83
2023/07/04 07:21:54;;;;;;;6.60;1.50;;;;;;;;;;5056866;28;20420;-84
2023/07/04 07:24:22;;;;;;;3.55;1.35;;;;;;;;;;5074477;28;20398;-84
2023/07/04 07:26:49;;;;;;;5.22;1.67;;;;;;;;;;5090826;28;20480;-82
2023/07/04 07:29:15;;;;;;;5.00;1.48;;;;;;;;;;5054204;28;20422;-83
2023/07/04 07:31:41;;;;;;;5.22;1.60;;;;;;;;;;5073501;28;20932;-84
2023/07/04 07:34:07;;;;;;;5.47;1.40;;;;;;;;;;5069617;28;20425;-83
2023/07/04 07:36:39;;;;;;;6.03;1.65;;;;;;;;;;5083513;28;20943;-84
2023/07/04 07:39:06;;;;;;;4.90;1.33;;;;;;;;;;5071190;28;20894;-84
2023/07/04 07:41:38;;;;;;;5.15;1.50;;;17.30;99.90;;;;;;5088500;28;20514;-84
2023/07/04 07:44:04;;;;;;;5.95;1.58;;;;;;;;;;5062123;28;20763;-84
2023/07/04 07:46:31;;;;;;;6.00;2.00;;;;;;;;;;5078545;28;20415;-84
2023/07/04 07:48:57;;;;;;;5.85;1.50;;;;;;;;;;5051216;28;20417;-84
2023/07/04 07:51:23;;;;;;;7.20;1.92;;;;;;;;;;5048575;28;20417;-85
2023/07/04 07:53:53;;;;;;;5.55;1.60;;;16.80;99.90;;;;;;5068650;28;20414;-84
2023/07/04 07:56:21;;;;;;;7.78;1.58;;;16.80;99.90;;;;;;5071006;28;20422;-85
2023/07/04 07:58:47;;;;;;;5.68;1.67;;;;;;;;;;5072735;28;20398;-84
2023/07/04 08:01:15;;;;;;;6.80;1.80;;;;;;;;;;5087066;28;20505;-86
2023/07/04 08:03:42;;;;;;;9.13;1.85;;;;;;;;;;5070404;28;20510;-86
2023/07/04 08:06:28;;;;;;;5.60;1.77;;;;;;;;;;5079780;28;20773;-88
2023/07/04 08:08:56;;;;;;;5.10;1.37;;;17.00;99.90;;;;;;5083280;28;20977;-87
2023/07/04 08:11:22;;;;;;;5.78;1.85;;;;;;;;;;5060484;28;20409;-86
2023/07/04 08:13:49;;;;;;;6.88;1.80;;;;;;;;;;5086531;28;20502;-88
2023/07/04 08:16:17;;;;;;;6.27;1.70;;;;;;;;;;5074911;28;20530;-85
2023/07/04 08:18:43;;;;;;;6.55;1.60;;;;;;;;;;5071416;28;20504;-84
2023/07/04 08:21:09;;;;;;;6.87;1.83;;;;;;;;;;5049791;28;20453;-87
2023/07/04 08:23:35;;;;;;;7.72;1.80;;;;;;;;;;5075439;28;20466;-86
2023/07/04 08:26:01;;;;;;;6.65;1.70;;;;;;;;;;5059882;28;20445;-86
2023/07/04 08:28:27;;;;;;;9.15;1.80;;;;;;;;;;5077207;28;20490;-85
2023/07/04 08:31:01;;;;;;;6.80;1.83;;;;;;;;;;5067049;28;20405;-85
2023/07/04 08:33:27;;;;;;;7.90;2.00;;;;;;;;;;5074898;28;20429;-83
2023/07/04 08:35:54;;;;;;;8.35;2.13;;;;;;;;;;5054360;28;20443;-86
2023/07/04 08:38:21;;;;;;;7.97;2.13;;;;;;;;;;5070495;28;20414;-84
2023/07/04 08:40:47;;;;;;;6.30;2.00;;;;;;;;;;5086759;28;20884;-87
2023/07/04 08:43:14;;;;;;;9.23;2.07;;;;;;;;;;5094316;28;20405;-86
2023/07/04 08:45:40;;;;;;;6.57;1.83;;;;;;;;;;5093983;28;20413;-86
2023/07/04 08:48:07;;;;;;;7.45;2.10;;;;;;;;;;5072151;28;20417;-85
2023/07/04 08:50:37;;;;;;;9.55;2.45;;;;;;;;;;5076781;28;20441;-86
2023/07/04 08:53:12;;;;;;;10.27;2.08;;;;;;;;;;5071565;28;20421;-87
2023/07/04 08:55:43;;;;;;;8.55;2.15;;;;;;;;;;5109403;28;20410;-87
2023/07/04 08:58:10;;;;;;;9.77;2.30;;;17.60;99.90;;;;;;5088206;28;20421;-87
2023/07/04 09:00:39;;;;;;;9.57;2.17;;;17.90;99.90;;;;;;5090010;28;20413;-85
2023/07/04 09:03:05;;;;;;;10.85;2.40;;;;;;;;;;5090358;28;20453;-86
2023/07/04 09:05:49;;;;;;;8.02;2.60;;;;;;;;;;5075334;28;20414;-86
2023/07/04 09:08:33;;;;;;;8.38;2.10;;;;;;;;;;5072717;28;20426;-87
2023/07/04 09:11:03;;;;;;;7.70;2.08;;;18.30;99.90;;;;;;5088855;28;20416;-87
2023/07/04 09:13:44;;;;;;;6.53;2.45;;;18.50;99.90;;;;;;5081875;28;20418;-88
2023/07/04 09:16:12;;;;;;;12.33;2.83;;;;;;;;;;5093882;28;20402;-88
2023/07/04 09:18:49;;;;;;;8.18;2.47;;;;;;;;;;5066521;28;21033;-89
2023/07/04 09:21:19;;;;;;;9.50;2.58;;;;;;;;;;5075297;28;20493;-89
2023/07/04 09:23:48;;;;;;;9.35;2.40;;;18.80;99.90;;;;;;5088994;28;20769;-87
2023/07/04 09:26:20;;;;;;;9.40;2.15;;;18.80;99.90;;;;;;5075060;28;20513;-89
2023/07/04 09:28:49;;;;;;;8.18;2.40;;;18.60;99.90;;;;;;5070239;28;20471;-86
2023/07/04 09:31:18;;;;;;;8.98;2.65;;;;;;;;;;5083849;28;20419;-87
2023/07/04 09:33:44;;;;;;;10.40;2.28;;;;;;;;;;5068827;28;20420;-87
2023/07/04 09:36:11;;;;;;;9.00;2.80;;;;;;;;;;5089608;28;20496;-87
2023/07/04 09:38:52;;;;;;;9.35;2.38;;;;;;;;;;5044382;28;20396;-86
2023/07/04 09:41:18;;;;;;;10.70;2.30;;;;;;;;;;5090228;28;20483;-87
2023/07/04 09:43:44;;;;;;;8.50;2.63;;;18.80;99.90;;;;;;5059347;28;20405;-86
2023/07/04 09:46:10;;;;;;;8.57;2.50;;;;;;;;;;5092392;28;20425;-85
2023/07/04 09:48:37;;;;;;;7.68;2.08;;;;;;;;;;5071809;28;20427;-86
2023/07/04 09:51:32;;;;;;;8.38;2.00;;;19.40;99.90;;;;;;5072742;28;20423;-85
2023/07/04 09:54:09;;;;;;;11.93;2.60;;;;;;;;;;5060368;28;20405;-85
2023/07/04 09:56:36;;;;;;;7.15;2.17;;;;;;;;;;5082393;28;20451;-85
2023/07/04 09:59:21;;;;;;;6.28;2.00;;;19.30;99.90;;;;;;5078618;28;20418;-88
2023/07/04 10:01:50;;;;;;;9.55;2.28;;;19.00;99.90;;;;;;5082523;28;20497;-87
2023/07/04 10:04:36;;;;;;;7.15;2.35;;;;;;;;;;5075792;28;20409;-87
2023/07/04 10:07:05;;;;;;;8.07;1.92;;;;;;;;;;5090211;28;20420;-86
2023/07/04 10:09:33;;;;;;;8.80;2.22;;;;;;;;;;5075110;28;20449;-86
2023/07/04 10:12:13;;;;;;;6.10;1.80;;;;;;;;;;5074073;28;21006;-84
2023/07/04 10:14:45;;;;;;;8.00;2.05;;;19.30;99.90;;;;;;5072341;28;20410;-86
2023/07/04 10:17:21;;;;;;;6.63;2.00;;;19.80;99.90;;;;;;5087593;28;20408;-85
2023/07/04 10:19:51;;;;;;;7.80;2.03;;;19.60;99.90;;;;;;5087631;28;20418;-86
2023/07/04 10:22:32;;;;;;;7.45;1.92;;;20.00;99.90;;;;;;5091478;28;20504;-85
2023/07/04 10:24:59;;;;;;;6.87;1.83;;;19.80;99.90;;;;;;5090818;28;20455;-85
2023/07/04 10:27:37;;;;;;;6.80;2.00;;;;;;;;;;5089591;28;20434;-86
2023/07/04 10:30:05;;;;;;;9.90;1.88;;;;;;;;;;5074143;28;20932;-86
2023/07/04 10:32:35;;;;;;;6.20;1.93;;;;;;;;;;5091880;28;20532;-86
2023/07/04 10:35:02;;;;;;;8.35;1.90;;;;;;;;;;5091678;28;20412;-86
2023/07/04 10:37:36;;;;;;;7.45;1.75;;;20.10;99.90;;;;;;5074538;28;20418;-84
2023/07/04 10:40:04;;;;;;;8.47;1.93;;;;;;;;;;5071721;28;20417;-84
2023/07/04 10:42:53;;;;;;;7.88;2.17;;;20.30;99.90;;;;;;5073557;28;20466;-85
2023/07/04 10:45:23;;;;;;;8.02;2.65;;;20.30;99.90;;;;;;5088177;28;20940;-85
2023/07/04 10:47:51;;;;;;;7.43;2.38;;;;;;;;;;5071085;28;20449;-84
2023/07/04 10:50:22;;;;;;;6.25;1.98;;;;;;;;;;5085901;28;20503;-84
2023/07/04 10:52:49;;;;;;;6.15;1.92;;;20.30;99.90;;;;;;5073571;28;20430;-85
2023/07/04 10:55:23;;;;;;;8.10;2.13;;;20.10;99.90;;;;;;5086358;28;20454;-85
2023/07/04 10:57:58;;;;;;;6.15;2.03;;;19.90;99.90;;;;;;5074959;28;20933;-86
2023/07/04 11:00:36;;;;;;;7.85;2.08;;;20.10;99.90;;;;;;5089240;28;20449;-85
2023/07/04 11:03:05;;;;;;;8.85;1.95;;;;;;;;;;5073972;28;20418;-88
2023/07/04 11:05:35;;;;;;;9.55;2.13;;;;;;;;;;5075891;28;20443;-85
2023/07/04 11:08:01;;;;;;;6.03;2.00;;;;;;;;;;5089059;28;20414;-85
2023/07/04 11:10:30;;;;;;;9.95;2.20;;;19.60;99.90;;;;;;5075329;28;20505;-85
2023/07/04 11:12:57;;;;;;;8.57;1.80;;;19.60;99.90;;;;;;5087082;28;20421;-85
2023/07/04 11:15:33;;;;;;;7.53;2.13;;;19.80;99.90;;;;;;5054976;28;20497;-86
2023/07/04 11:18:00;;;;;;;7.78;2.13;;;;;;;;;;5074748;28;20410;-85
2023/07/04 11:20:30;;;;;;;7.50;2.40;;;;;;;;;;5078543;28;20428;-85
2023/07/04 11:23:11;;;;;;;7.00;1.90;;;20.40;99.90;;;;;;5090752;28;20516;-85
2023/07/04 11:25:46;;;;;;;6.18;2.00;;;;;;;;;;5079181;28;20406;-85
2023/07/04 11:28:17;;;;;;;8.48;2.42;;;;;;;;;;5092068;28;20410;-79
2023/07/04 11:30:46;;;;;;;8.93;2.20;;;20.90;99.90;;;;;;5062944;28;20429;-79
2023/07/04 11:33:31;;;;;;;7.37;2.10;;;;;;;;;;5071957;28;20493;-80
2023/07/04 11:35:57;;;;;;;7.43;2.23;;;;;;;;;;5088909;28;20409;-80
2023/07/04 11:38:23;;;;;;;9.32;1.92;;;;;;;;;;5037800;28;20410;-80
2023/07/04 11:40:54;;;;;;;5.95;2.00;;;;;;;;;;5066811;28;20758;-80
2023/07/04 11:43:29;;;;;;;8.50;2.30;;;20.90;99.90;;;;;;5068136;28;20432;-80
2023/07/04 11:45:57;;;;;;;9.02;2.42;;;;;;;;;;5054061;28;20400;-80
2023/07/04 11:48:29;;;;;;;6.50;1.98;;;20.50;99.90;;;;;;5064287;28;20418;-79
2023/07/04 11:51:06;;;;;;;9.13;2.28;;;;;;;;;;5060218;28;20402;-80
2023/07/04 11:53:47;;;;;;;8.85;2.42;;;;;;;;;;5072612;28;20427;-80
2023/07/04 11:56:35;;;;;;;8.00;2.10;;;20.50;99.90;;;;;;5071598;28;20481;-79
2023/07/04 11:59:20;;;;;;;8.95;2.25;;;;;;;;;;5087956;28;20414;-77
2023/07/04 12:01:55;;;;;;;7.10;1.98;;;;;;;;;;5090008;28;20483;-84
2023/07/04 12:04:44;;;;;;;6.90;2.20;;;20.80;99.90;;;;;;5089754;28;20422;-84
2023/07/04 12:07:11;;;;;;;5.95;2.10;;;;;;;;;;5074433;28;20475;-84
2023/07/04 12:09:55;;;;;;;6.78;2.10;;;;;;;;;;5072881;28;20766;-85
2023/07/04 12:12:32;;;;;;;6.30;1.92;;;;;;;;;;5089020;28;20422;-84
2023/07/04 12:15:09;;;;;;;6.97;2.10;;;;;;;;;;5086599;28;20429;-84
2023/07/04 12:17:41;;;;;;;7.38;2.47;;;20.80;99.90;;;;;;5068409;28;20409;-84
2023/07/04 12:20:11;;;;;;;6.73;2.03;;;;;;;;;;5090688;28;20406;-84
2023/07/04 12:22:44;;;;;;;7.10;2.20;;;21.20;99.90;;;;;;5077546;28;20422;-85
2023/07/04 12:25:20;;;;;;;6.80;2.00;;;;;;;;;;5072957;28;20413;-85
2023/07/04 12:27:46;;;;;;;7.05;2.20;;;;;;;;;;5073111;28;20443;-86
2023/07/04 12:30:13;;;;;;;6.47;2.20;;;;;;;;;;5087026;28;20909;-86
2023/07/04 12:32:39;;;;;;;7.40;2.00;;;;;;;;;;5087406;28;20422;-85
2023/07/04 12:35:06;;;;;;;8.30;2.20;;;;;;;;;;5088108;28;20498;-85
2023/07/04 12:37:39;;;;;;;5.40;2.00;;;;;;;;;;5090247;28;20398;-86
2023/07/04 12:40:06;;;;;;;8.35;2.22;;;;;;;;;;5072255;28;20930;-85
2023/07/04 12:42:33;;;;;;;8.45;2.45;;;;;;;;;;5083853;28;20491;-86
2023/07/04 12:44:59;;;;;;;6.75;2.00;;;;;;;;;;5036755;28;20465;-85
2023/07/04 12:47:33;;;;;;;5.63;1.73;;;21.60;98.90;;;;;;5056093;28;20814;-86
2023/07/04 12:50:01;;;;;;;6.65;1.98;;;21.50;99.10;;;;;;5083322;28;20432;-85
2023/07/04 12:52:37;;;;;;;6.60;2.17;;;;;;;;;;5082151;28;20429;-85
2023/07/04 12:55:06;;;;;;;8.07;2.10;;;21.50;99.30;;;;;;5067143;28;20418;-86
2023/07/04 12:57:33;;;;;;;7.13;2.00;;;;;;;;;;5062830;28;20449;-86
2023/07/04 13:00:30;;;;;;;6.55;2.05;;;21.40;98.70;;;;;;5061499;28;20414;-86
2023/07/04 13:03:11;;;;;;;9.10;2.17;;;21.80;98.20;;;;;;5062836;28;20427;-85
2023/07/04 13:05:42;;;;;;;6.13;1.92;;;;;;;;;;5076403;28;20424;-85
2023/07/04 13:08:15;;;;;;;6.50;2.20;;;22.00;98.30;;;;;;5088492;28;20505;-84
2023/07/04 13:10:41;;;;;;;7.97;2.03;;;;;;;;;;5071168;28;20401;-85
2023/07/04 13:13:26;;;;;;;6.25;2.00;;;;;;;;;;5075204;28;20475;-85
2023/07/04 13:16:07;;;;;;;6.20;1.83;;;;;;;;;;5087880;28;20923;-84
2023/07/04 13:18:37;;;;;;;10.32;2.17;;;;;;;;;;5085893;28;20405;-84
2023/07/04 13:21:03;;;;;;;7.40;2.20;;;;;;;;;;5087060;28;21936;-84
2023/07/04 13:23:32;;;;;;;6.63;2.38;;;;;;;;;;5088670;28;20418;-85
2023/07/04 13:25:59;;;;;;;6.90;1.85;;;;;;;;;;5089962;28;20770;-84
2023/07/04 13:28:27;;;;;;;6.35;2.15;;;;;;;;;;5090774;28;20825;-83
2023/07/04 13:31:12;;;;;;;8.35;2.35;;;;;;;;;;5089411;28;20474;-84
2023/07/04 13:33:38;;;;;;;8.88;2.10;;;;;;;;;;5092500;28;20424;-84
2023/07/04 13:36:07;;;;;;;8.05;1.90;;;22.20;96.30;;;;;;5091829;28;20417;-83
2023/07/04 13:38:33;;;;;;;7.82;2.05;;;;;;;;;;5075633;28;20453;-84
2023/07/04 13:41:00;;;;;;;9.55;1.92;;;;;;;;;;5059320;28;20938;-85
2023/07/04 13:43:27;;;;;;;8.73;2.43;;;;;;;;;;5091719;28;20425;-82
2023/07/04 13:45:53;;;;;;;7.80;2.10;;;;;;;;;;5091753;28;20988;-82
2023/07/04 13:48:19;;;;;;;8.32;2.08;;;;;;;;;;5081234;28;20423;-81
2023/07/04 13:50:45;;;;;;;7.32;2.25;;;;;;;;;;5057296;28;20940;-83
2023/07/04 13:53:11;;;;;;;7.83;1.97;;;;;;;;;;5064926;28;20892;-83
2023/07/04 13:55:37;;;;;;;6.27;2.10;;;;;;;;;;5079524;28;20402;-85
2023/07/04 13:58:03;;;;;;;8.33;2.57;;;;;;;;;;5076722;28;20470;-85
2023/07/04 14:00:30;;;;;;;4.57;2.10;;;;;;;;;;5076462;28;20421;-83
2023/07/04 14:02:56;;;;;;;6.65;2.17;;;;;;;;;;5093445;28;20763;-84
2023/07/04 14:05:22;;;;;;;7.85;2.08;;;;;;;;;;5090298;28;20417;-84
2023/07/04 14:07:48;;;;;;;7.10;2.10;;;;;;;;;;5067987;28;20919;-87
2023/07/04 14:10:14;;;;;;;6.93;1.90;;;;;;;;;;5092978;28;20448;-86
2023/07/04 14:12:41;;;;;;;7.22;2.15;;;;;;;;;;5076805;28;20918;-85
2023/07/04 14:15:08;;;;;;;9.05;2.20;;;21.90;98.30;;;;;;5076367;28;20422;-86
2023/07/04 14:17:34;;;;;;;5.97;1.80;;;;;;;;;;5094188;28;20422;-85
2023/07/04 14:20:04;;;;;;;7.47;2.10;;;;;;;;;;5093278;28;20426;-86
2023/07/04 14:22:30;;;;;;;8.27;2.08;;;;;;;;;;5065099;28;20812;-85
2023/07/04 14:24:55;;;;;;;7.45;2.20;;;21.80;97.50;;;;;;5061233;28;20431;-85
2023/07/04 14:27:22;;;;;;;6.07;1.95;;;;;;;;;;5074011;28;20426;-85
2023/07/04 14:29:48;;;;;;;7.88;2.15;;;;;;;;;;5054808;28;20545;-85